createdAt,value
2022-08-31T00:00:15.097Z,96416.78
2022-08-31T00:03:00.737Z,96407.94
2022-08-31T00:05:28.513Z,96410.88
2022-08-31T00:07:55.910Z,96412.41
2022-08-31T00:10:32.304Z,96416.19
2022-08-31T00:13:01.055Z,96401.91
2022-08-31T00:15:30.419Z,96403.41
2022-08-31T00:17:58.876Z,96413.50
2022-08-31T00:20:33.333Z,96411.81
2022-08-31T00:23:11.068Z,96412.91
2022-08-31T00:25:40.556Z,96405.41
2022-08-31T00:28:08.584Z,96396.63
2022-08-31T00:30:36.255Z,96399.22
2022-08-31T00:33:03.935Z,96403.25
2022-08-31T00:35:33.117Z,96393.22
2022-08-31T00:38:00.879Z,96393.50
2022-08-31T00:40:28.631Z,96395.75
2022-08-31T00:42:56.797Z,96387.78
2022-08-31T00:45:24.261Z,96396.34
2022-08-31T00:47:52.378Z,96394.19
2022-08-31T00:50:21.438Z,96387.22
2022-08-31T00:52:56.556Z,96388.59
2022-08-31T00:55:33.997Z,96390.72
2022-08-31T00:58:11.887Z,96382.44
2022-08-31T01:00:40.573Z,96378.50
2022-08-31T01:03:08.984Z,96381.78
2022-08-31T01:05:37.877Z,96379.53
2022-08-31T01:08:06.115Z,96375.56
2022-08-31T01:10:40.556Z,96382.47
2022-08-31T01:13:09.195Z,96375.28
2022-08-31T01:15:38.035Z,96371.03
2022-08-31T01:18:06.826Z,96364.94
2022-08-31T01:20:48.692Z,96367.78
2022-08-31T01:23:39.195Z,96364.16
2022-08-31T01:26:09.135Z,96355.06
2022-08-31T01:28:36.676Z,96354.19
2022-08-31T01:31:41.562Z,96359.81
2022-08-31T01:34:08.900Z,96366.31
2022-08-31T01:36:38.735Z,96367.41
2022-08-31T01:39:08.400Z,96372.06
2022-08-31T01:41:36.455Z,96371.25
2022-08-31T01:44:03.615Z,96365.25
2022-08-31T01:46:30.739Z,96368.50
2022-08-31T01:49:00.475Z,96355.81
2022-08-31T01:51:28.045Z,96355.31
2022-08-31T01:53:56.075Z,96355.03
2022-08-31T01:56:26.658Z,96360.63
2022-08-31T01:58:55.376Z,96355.53
2022-08-31T02:01:37.420Z,96345.97
2022-08-31T02:04:07.216Z,96345.88
2022-08-31T02:06:34.927Z,96343.50
2022-08-31T02:09:05.035Z,96339.75
2022-08-31T02:11:33.556Z,96340.34
2022-08-31T02:14:00.784Z,96341.63
2022-08-31T02:16:28.012Z,96335.03
2022-08-31T02:18:55.375Z,96334.81
2022-08-31T02:21:22.855Z,96340.69
2022-08-31T02:23:50.883Z,96340.00
2022-08-31T02:26:18.275Z,96336.56
2022-08-31T02:28:46.355Z,96335.38
2022-08-31T02:31:13.500Z,96333.69
2022-08-31T02:33:48.975Z,96334.19
2022-08-31T02:36:16.135Z,96327.28
2022-08-31T02:38:44.283Z,96335.56
2022-08-31T02:41:11.355Z,96329.09
2022-08-31T02:43:41.016Z,96328.88
2022-08-31T02:46:08.260Z,96329.66
2022-08-31T02:48:41.817Z,96318.81
2022-08-31T02:51:16.795Z,96325.53
2022-08-31T02:53:47.095Z,96321.00
2022-08-31T02:56:14.476Z,96313.03
2022-08-31T02:58:42.217Z,96324.44
2022-08-31T03:01:10.138Z,96319.00
2022-08-31T03:03:38.996Z,96318.59
2022-08-31T03:06:06.256Z,96324.88
2022-08-31T03:08:33.595Z,96330.41
2022-08-31T03:11:01.356Z,96319.84
2022-08-31T03:13:30.058Z,96317.19
2022-08-31T03:15:58.202Z,96319.06
2022-08-31T03:18:25.276Z,96328.59
2022-08-31T03:20:52.520Z,96325.94
2022-08-31T03:23:19.739Z,96322.22
2022-08-31T03:25:47.835Z,96325.28
2022-08-31T03:28:15.015Z,96330.88
2022-08-31T03:30:51.377Z,96321.56
2022-08-31T03:33:18.948Z,96338.06
2022-08-31T03:35:46.335Z,96326.47
2022-08-31T03:38:16.219Z,96334.19
2022-08-31T03:40:45.007Z,96330.28
2022-08-31T03:43:13.035Z,96330.34
2022-08-31T03:45:43.056Z,96334.09
2022-08-31T03:48:13.107Z,96328.84
2022-08-31T03:50:43.323Z,96329.16
2022-08-31T03:53:20.393Z,96329.94
2022-08-31T03:55:50.984Z,96328.66
2022-08-31T03:58:18.279Z,96331.81
2022-08-31T04:00:45.957Z,96332.91
2022-08-31T04:03:31.317Z,96338.59
2022-08-31T04:06:30.799Z,96342.09
2022-08-31T04:09:24.175Z,96342.66
2022-08-31T04:12:11.483Z,96335.06
2022-08-31T04:15:02.700Z,96342.00
2022-08-31T04:17:55.832Z,96337.25
2022-08-31T04:20:43.353Z,96339.44
2022-08-31T04:23:10.445Z,96337.25
2022-08-31T04:25:43.374Z,96339.44
2022-08-31T04:28:11.653Z,96339.50
2022-08-31T04:30:42.090Z,96337.06
2022-08-31T04:33:11.319Z,96332.25
2022-08-31T04:35:42.691Z,96329.38
2022-08-31T04:38:11.241Z,96325.16
2022-08-31T04:40:42.595Z,96329.38
2022-08-31T04:43:10.725Z,96330.47
2022-08-31T04:45:44.616Z,96334.91
2022-08-31T04:48:13.432Z,96337.50
2022-08-31T04:50:42.874Z,96341.06
2022-08-31T04:53:10.413Z,96334.97
2022-08-31T04:55:42.251Z,96329.06
2022-08-31T04:58:13.258Z,96331.47
2022-08-31T05:00:43.170Z,96333.06
2022-08-31T05:03:28.846Z,96341.53
2022-08-31T05:05:57.166Z,96329.50
2022-08-31T05:08:24.375Z,96342.78
2022-08-31T05:10:51.635Z,96339.06
2022-08-31T05:13:20.286Z,96329.75
2022-08-31T05:15:50.618Z,96332.91
2022-08-31T05:18:22.033Z,96336.25
2022-08-31T05:20:55.414Z,96339.69
2022-08-31T05:23:22.525Z,96344.41
2022-08-31T05:25:50.974Z,96343.06
2022-08-31T05:28:23.826Z,96344.34
2022-08-31T05:30:51.176Z,96336.28
2022-08-31T05:33:42.553Z,96336.19
2022-08-31T05:36:11.053Z,96347.22
2022-08-31T05:38:39.894Z,96346.38
2022-08-31T05:41:10.218Z,96343.34
2022-08-31T05:43:38.715Z,96343.22
2022-08-31T05:46:11.802Z,96340.78
2022-08-31T05:48:39.513Z,96337.25
2022-08-31T05:51:14.672Z,96342.47
2022-08-31T05:53:43.270Z,96329.09
2022-08-31T05:56:15.112Z,96338.31
2022-08-31T05:58:44.407Z,96341.50
2022-08-31T06:01:15.234Z,96342.72
2022-08-31T06:04:06.942Z,96347.13
2022-08-31T06:06:34.453Z,96347.06
2022-08-31T06:09:01.473Z,96345.38
2022-08-31T06:11:31.401Z,96346.25
2022-08-31T06:14:00.472Z,96350.66
2022-08-31T06:16:30.418Z,96346.53
2022-08-31T06:18:58.574Z,96347.03
2022-08-31T06:21:32.095Z,96346.84
2022-08-31T06:24:00.345Z,96338.50
2022-08-31T06:26:31.014Z,96340.44
2022-08-31T06:29:01.862Z,96355.34
2022-08-31T06:31:35.440Z,96340.44
2022-08-31T06:34:04.533Z,96348.56
2022-08-31T06:36:51.734Z,96342.31
2022-08-31T06:39:54.082Z,96349.16
2022-08-31T06:42:50.836Z,96345.88
2022-08-31T06:45:49.138Z,96354.75
2022-08-31T06:48:35.837Z,96358.06
2022-08-31T06:51:04.013Z,96353.91
2022-08-31T06:53:31.153Z,96356.44
2022-08-31T06:56:20.178Z,96350.59
2022-08-31T06:59:27.743Z,96358.31
2022-08-31T07:02:13.224Z,96361.84
2022-08-31T07:04:40.455Z,96363.13
2022-08-31T07:07:11.497Z,96366.44
2022-08-31T07:09:41.374Z,96357.50
2022-08-31T07:12:09.262Z,96364.38
2022-08-31T07:14:36.583Z,96368.97
2022-08-31T07:17:04.757Z,96364.16
2022-08-31T07:19:33.253Z,96367.69
2022-08-31T07:22:06.451Z,96367.84
2022-08-31T07:24:35.491Z,96359.53
2022-08-31T07:27:10.261Z,96370.56
2022-08-31T07:29:49.564Z,96376.09
2022-08-31T07:32:18.152Z,96372.97
2022-08-31T07:34:56.286Z,96377.97
2022-08-31T07:38:07.693Z,96375.34
2022-08-31T07:40:54.690Z,96382.16
2022-08-31T07:43:24.212Z,96378.00
2022-08-31T07:45:51.743Z,96386.94
2022-08-31T07:48:24.304Z,96386.22
2022-08-31T07:51:15.027Z,96383.28
2022-08-31T07:54:12.354Z,96378.63
2022-08-31T07:57:03.481Z,96376.16
2022-08-31T07:59:33.312Z,96379.16
2022-08-31T08:02:04.986Z,96375.44
2022-08-31T08:04:32.712Z,96371.97
2022-08-31T08:07:18.553Z,96384.72
2022-08-31T08:10:14.531Z,96380.63
2022-08-31T08:12:48.614Z,96377.69
2022-08-31T08:15:38.800Z,96389.47
2022-08-31T08:18:29.443Z,96384.47
2022-08-31T08:21:00.412Z,96383.03
2022-08-31T08:23:28.471Z,96386.19
2022-08-31T08:26:21.580Z,96393.25
2022-08-31T08:29:09.353Z,96389.00
2022-08-31T08:31:46.476Z,96392.94
2022-08-31T08:34:13.794Z,96387.59
2022-08-31T08:36:41.072Z,96386.81
2022-08-31T08:39:13.116Z,96385.56
2022-08-31T08:41:48.103Z,96389.66
2022-08-31T08:44:18.302Z,96384.66
2022-08-31T08:46:53.879Z,96395.66
2022-08-31T08:49:55.179Z,96391.13
2022-08-31T08:52:29.293Z,96389.38
2022-08-31T08:55:02.095Z,96393.13
2022-08-31T08:57:39.622Z,96395.34
2022-08-31T09:00:25.194Z,96395.97
2022-08-31T09:03:31.074Z,96394.56
2022-08-31T09:06:45.421Z,96390.63
2022-08-31T09:09:32.845Z,96399.13
2022-08-31T09:12:11.397Z,96387.47
2022-08-31T09:15:16.699Z,96398.47
2022-08-31T09:17:57.916Z,96386.06
2022-08-31T09:20:28.416Z,96385.91
2022-08-31T09:22:57.465Z,96393.16
2022-08-31T09:25:52.325Z,96388.13
2022-08-31T09:28:38.893Z,96385.13
2022-08-31T09:31:06.289Z,96391.22
2022-08-31T09:33:44.781Z,96390.59
2022-08-31T09:36:22.801Z,96388.25
2022-08-31T09:38:50.560Z,96384.94
2022-08-31T09:41:29.664Z,96380.38
2022-08-31T09:44:22.691Z,96381.16
2022-08-31T09:46:53.652Z,96378.16
2022-08-31T09:49:25.416Z,96381.13
2022-08-31T09:51:52.925Z,96379.31
2022-08-31T09:54:46.611Z,96379.59
2022-08-31T09:57:14.455Z,96371.81
2022-08-31T09:59:48.183Z,96372.41
2022-08-31T10:02:22.353Z,96361.03
2022-08-31T10:05:06.815Z,96355.19
2022-08-31T10:07:45.683Z,96362.66
2022-08-31T10:10:32.993Z,96364.97
2022-08-31T10:13:10.498Z,96358.00
2022-08-31T10:15:42.263Z,96353.03
2022-08-31T10:18:50.946Z,96351.38
2022-08-31T10:21:26.704Z,96352.16
2022-08-31T10:24:20.918Z,96343.56
2022-08-31T10:26:57.255Z,96341.38
2022-08-31T10:29:46.366Z,96339.44
2022-08-31T10:32:27.994Z,96332.91
2022-08-31T10:35:07.371Z,96336.31
2022-08-31T10:38:08.519Z,96334.00
2022-08-31T10:40:47.569Z,96329.22
2022-08-31T10:43:32.050Z,96327.41
2022-08-31T10:45:59.916Z,96321.50
2022-08-31T10:48:27.615Z,96329.16
2022-08-31T10:51:18.371Z,96321.00
2022-08-31T10:53:45.381Z,96324.38
2022-08-31T10:56:41.630Z,96319.28
2022-08-31T10:59:41.972Z,96318.31
2022-08-31T11:13:39.973Z,96303.03
2022-08-31T11:16:27.190Z,96297.47
2022-08-31T11:19:10.183Z,96297.94
2022-08-31T11:21:51.213Z,96296.50
2022-08-31T11:24:37.619Z,96295.06
2022-08-31T11:27:17.524Z,96293.63
2022-08-31T11:29:57.683Z,96291.84
2022-08-31T11:32:46.024Z,96293.00
2022-08-31T11:35:15.718Z,96287.28
2022-08-31T11:37:52.532Z,96282.69
2022-08-31T11:40:41.873Z,96285.53
2022-08-31T11:43:36.435Z,96285.28
2022-08-31T11:46:27.238Z,96281.69
2022-08-31T11:48:55.329Z,96280.00
2022-08-31T11:51:45.736Z,96285.06
2022-08-31T11:54:42.274Z,96284.25
2022-08-31T11:57:15.732Z,96286.03
2022-08-31T11:59:46.293Z,96281.31
2022-08-31T12:02:26.173Z,96287.75
2022-08-31T12:04:53.698Z,96290.59
2022-08-31T12:07:34.746Z,96292.28
2022-08-31T12:10:55.814Z,96286.59
2022-08-31T12:13:35.494Z,96284.50
2022-08-31T12:16:04.388Z,96287.97
2022-08-31T12:18:46.854Z,96282.22
2022-08-31T12:21:39.034Z,96279.88
2022-08-31T12:24:28.573Z,96279.88
2022-08-31T12:27:18.892Z,96278.34
2022-08-31T12:29:46.703Z,96270.59
2022-08-31T12:32:27.252Z,96273.63
2022-08-31T12:35:18.494Z,96274.28
2022-08-31T12:37:45.932Z,96281.47
2022-08-31T12:40:22.516Z,96272.38
2022-08-31T12:42:57.625Z,96278.31
2022-08-31T12:45:51.018Z,96274.75
2022-08-31T12:48:30.324Z,96275.66
2022-08-31T12:51:15.177Z,96278.22
2022-08-31T12:53:47.879Z,96267.25
2022-08-31T12:56:30.396Z,96266.81
2022-08-31T12:59:06.497Z,96273.19
2022-08-31T13:01:42.299Z,96270.72
2022-08-31T13:04:10.093Z,96270.59
2022-08-31T13:06:40.851Z,96272.72
2022-08-31T13:09:08.204Z,96273.81
2022-08-31T13:11:44.014Z,96270.00
2022-08-31T13:14:15.740Z,96272.22
2022-08-31T13:16:49.759Z,96264.50
2022-08-31T13:19:26.857Z,96266.94
2022-08-31T13:22:09.342Z,96261.94
2022-08-31T13:24:41.505Z,96263.69
2022-08-31T13:27:26.434Z,96265.13
2022-08-31T13:29:57.164Z,96264.22
2022-08-31T13:32:33.361Z,96250.91
2022-08-31T13:35:04.495Z,96259.41
2022-08-31T13:37:45.378Z,96255.81
2022-08-31T13:40:17.201Z,96247.31
2022-08-31T13:42:55.540Z,96251.44
2022-08-31T13:45:31.725Z,96254.28
2022-08-31T13:48:03.864Z,96251.50
2022-08-31T13:50:35.881Z,96249.47
2022-08-31T13:55:52.640Z,96249.69
2022-08-31T13:58:30.516Z,96250.00
2022-08-31T14:01:19.085Z,96251.47
2022-08-31T14:03:58.321Z,96251.66
2022-08-31T14:06:30.156Z,96246.50
2022-08-31T14:09:08.214Z,96248.59
2022-08-31T14:11:35.882Z,96251.28
2022-08-31T14:14:10.073Z,96252.72
2022-08-31T14:16:43.824Z,96252.13
2022-08-31T14:19:33.706Z,96248.19
2022-08-31T14:22:16.675Z,96252.34
2022-08-31T14:24:44.293Z,96258.66
2022-08-31T14:27:13.697Z,96264.84
2022-08-31T14:29:42.243Z,96256.81
2022-08-31T14:32:09.223Z,96260.31
2022-08-31T14:34:41.256Z,96258.75
2022-08-31T14:37:11.594Z,96256.94
2022-08-31T14:39:46.248Z,96261.34
2022-08-31T14:42:30.184Z,96263.75
2022-08-31T14:45:07.893Z,96266.94
2022-08-31T14:47:42.800Z,96261.47
2022-08-31T14:50:23.714Z,96264.97
2022-08-31T14:52:58.599Z,96258.56
2022-08-31T14:55:27.643Z,96256.25
2022-08-31T14:58:05.304Z,96260.50
2022-08-31T15:00:35.616Z,96264.97
2022-08-31T15:03:03.201Z,96264.22
2022-08-31T15:05:30.314Z,96260.94
2022-08-31T15:07:57.423Z,96257.84
2022-08-31T15:10:26.133Z,96261.44
2022-08-31T15:12:53.851Z,96262.41
2022-08-31T15:15:21.244Z,96258.16
2022-08-31T15:17:51.739Z,96250.47
2022-08-31T15:20:21.693Z,96243.72
2022-08-31T15:22:49.175Z,96240.41
2022-08-31T15:25:18.924Z,96237.44
2022-08-31T15:27:46.802Z,96244.03
2022-08-31T15:30:16.102Z,96243.25
2022-08-31T15:32:45.477Z,96234.75
2022-08-31T15:35:18.040Z,96239.56
2022-08-31T15:37:56.690Z,96241.78
2022-08-31T15:40:25.606Z,96250.69
2022-08-31T15:42:56.306Z,96250.22
2022-08-31T15:45:25.506Z,96248.34
2022-08-31T15:48:11.560Z,96242.81
2022-08-31T15:50:48.285Z,96245.25
2022-08-31T15:53:16.893Z,96241.97
2022-08-31T15:55:45.091Z,96260.44
2022-08-31T15:58:12.843Z,96255.72
2022-08-31T16:00:42.380Z,96252.72
2022-08-31T16:03:09.627Z,96254.91
2022-08-31T16:05:39.580Z,96254.91
2022-08-31T16:08:13.953Z,96261.13
2022-08-31T16:10:46.465Z,96251.22
2022-08-31T16:13:16.031Z,96251.53
2022-08-31T16:15:51.283Z,96245.88
2022-08-31T16:18:20.509Z,96247.56
2022-08-31T16:20:50.265Z,96253.84
2022-08-31T16:23:18.253Z,96255.22
2022-08-31T16:25:48.851Z,96247.38
2022-08-31T16:28:22.092Z,96256.41
2022-08-31T16:30:52.035Z,96244.19
2022-08-31T16:33:21.066Z,96238.47
2022-08-31T16:35:48.142Z,96233.78
2022-08-31T16:38:15.759Z,96240.25
2022-08-31T16:40:43.632Z,96245.47
2022-08-31T16:43:11.533Z,96245.47
2022-08-31T16:45:40.330Z,96247.88
2022-08-31T16:48:29.641Z,96239.25
2022-08-31T16:50:58.462Z,96245.22
2022-08-31T16:53:26.050Z,96240.50
2022-08-31T16:55:53.508Z,96235.28
2022-08-31T16:58:47.551Z,96239.31
2022-08-31T17:01:15.078Z,96238.78
2022-08-31T17:03:46.622Z,96239.78
2022-08-31T17:06:13.993Z,96241.53
2022-08-31T17:08:47.407Z,96243.00
2022-08-31T17:11:27.489Z,96243.88
2022-08-31T17:13:58.505Z,96244.00
2022-08-31T17:16:31.669Z,96241.44
2022-08-31T17:18:59.272Z,96246.78
2022-08-31T17:21:29.378Z,96241.06
2022-08-31T17:23:59.099Z,96246.84
2022-08-31T17:26:31.258Z,96255.75
2022-08-31T17:29:03.338Z,96247.19
2022-08-31T17:31:33.290Z,96254.47
2022-08-31T17:34:02.149Z,96263.13
2022-08-31T17:36:37.418Z,96258.44
2022-08-31T17:39:06.259Z,96254.34
2022-08-31T17:41:34.540Z,96251.50
2022-08-31T17:44:02.098Z,96260.47
2022-08-31T17:46:29.543Z,96260.16
2022-08-31T17:48:57.163Z,96259.19
2022-08-31T17:51:31.699Z,96270.78
2022-08-31T17:54:02.589Z,96275.22
2022-08-31T17:56:48.350Z,96278.28
2022-08-31T17:59:23.948Z,96287.03
2022-08-31T18:01:55.030Z,96290.09
2022-08-31T18:04:25.140Z,96291.66
2022-08-31T18:06:55.290Z,96301.50
2022-08-31T18:09:25.829Z,96308.16
2022-08-31T18:11:53.725Z,96305.22
2022-08-31T18:14:24.540Z,96309.63
2022-08-31T18:16:53.638Z,96325.88
2022-08-31T18:19:27.663Z,96321.94
2022-08-31T18:21:56.790Z,96315.72
2022-08-31T18:24:23.879Z,96321.03
2022-08-31T18:26:52.187Z,96326.34
2022-08-31T18:29:24.929Z,96323.59
2022-08-31T18:31:54.379Z,96329.13
2022-08-31T18:34:23.902Z,96322.72
2022-08-31T18:36:53.652Z,96331.97
2022-08-31T18:39:47.770Z,96327.44
2022-08-31T18:42:28.572Z,96333.75
2022-08-31T18:45:14.088Z,96327.66
2022-08-31T18:47:41.690Z,96325.50
2022-08-31T18:50:09.139Z,96336.03
2022-08-31T18:52:42.356Z,96330.44
2022-08-31T18:55:15.920Z,96341.72
2022-08-31T18:57:48.757Z,96332.41
2022-08-31T19:00:17.970Z,96336.41
2022-08-31T19:02:45.398Z,96336.19
2022-08-31T19:05:14.205Z,96334.63
2022-08-31T19:07:42.211Z,96338.66
2022-08-31T19:10:13.232Z,96337.09
2022-08-31T19:12:42.818Z,96336.00
2022-08-31T19:15:12.511Z,96331.78
2022-08-31T19:17:41.924Z,96340.03
2022-08-31T19:20:10.477Z,96342.78
2022-08-31T19:22:38.361Z,96338.03
2022-08-31T19:25:09.227Z,96334.28
2022-08-31T19:27:38.139Z,96333.50
2022-08-31T19:30:08.060Z,96332.72
2022-08-31T19:32:36.980Z,96326.34
2022-08-31T19:35:04.771Z,96323.97
2022-08-31T19:37:31.750Z,96319.31
2022-08-31T19:39:58.815Z,96314.53
2022-08-31T19:45:40.833Z,96326.78
2022-08-31T19:48:05.829Z,96335.00
2022-08-31T19:50:41.357Z,96334.13
2022-08-31T19:53:12.867Z,96333.75
2022-08-31T19:55:50.332Z,96341.66
2022-08-31T19:58:22.283Z,96337.41
2022-08-31T20:00:50.171Z,96340.44
2022-08-31T20:03:19.643Z,96343.38
2022-08-31T20:05:47.501Z,96360.56
2022-08-31T20:08:14.489Z,96351.13
2022-08-31T20:10:46.570Z,96354.56
2022-08-31T20:13:13.925Z,96357.22
2022-08-31T20:15:44.058Z,96356.34
2022-08-31T20:18:12.903Z,96366.81
2022-08-31T20:20:45.901Z,96366.03
2022-08-31T20:23:17.062Z,96359.84
2022-08-31T20:25:46.279Z,96360.16
2022-08-31T20:28:14.319Z,96363.06
2022-08-31T20:30:43.550Z,96361.19
2022-08-31T20:33:12.094Z,96363.56
2022-08-31T20:35:47.934Z,96364.06
2022-08-31T20:38:17.342Z,96363.69
2022-08-31T20:40:47.366Z,96364.72
2022-08-31T20:43:15.139Z,96361.22
2022-08-31T20:45:42.365Z,96360.84
2022-08-31T20:48:28.781Z,96352.34
2022-08-31T20:50:56.591Z,96361.22
2022-08-31T20:53:42.835Z,96357.28
2022-08-31T20:56:17.452Z,96352.34
2022-08-31T20:58:45.861Z,96354.63
2022-08-31T21:01:14.391Z,96359.19
2022-08-31T21:03:41.755Z,96360.22
2022-08-31T21:06:11.820Z,96357.13
2022-08-31T21:08:42.803Z,96369.59
2022-08-31T21:11:11.829Z,96357.41
2022-08-31T21:13:38.841Z,96358.75
2022-08-31T21:16:05.962Z,96358.75
2022-08-31T21:18:34.830Z,96358.19
2022-08-31T21:21:08.441Z,96356.06
2022-08-31T21:23:37.639Z,96358.97
2022-08-31T21:26:08.824Z,96360.78
2022-08-31T21:28:39.580Z,96366.06
2022-08-31T21:31:16.431Z,96362.88
2022-08-31T21:33:58.129Z,96362.44
2022-08-31T21:36:26.863Z,96361.63
2022-08-31T21:38:56.483Z,96361.03
2022-08-31T21:41:26.882Z,96359.19
2022-08-31T21:43:55.569Z,96365.06
2022-08-31T21:46:25.627Z,96357.63
2022-08-31T21:48:55.261Z,96365.00
2022-08-31T21:51:28.310Z,96357.56
2022-08-31T21:54:15.743Z,96365.53
2022-08-31T21:56:51.910Z,96364.16
2022-08-31T21:59:22.280Z,96365.00
2022-08-31T22:01:51.235Z,96361.34
2022-08-31T22:04:20.779Z,96366.66
2022-08-31T22:06:49.827Z,96376.75
2022-08-31T22:09:20.083Z,96364.91
2022-08-31T22:11:50.939Z,96369.00
2022-08-31T22:14:20.545Z,96368.25
2022-08-31T22:16:48.280Z,96363.72
2022-08-31T22:19:21.119Z,96358.16
2022-08-31T22:21:51.477Z,96370.59
2022-08-31T22:24:26.876Z,96364.41
2022-08-31T22:26:55.142Z,96367.53
2022-08-31T22:29:24.600Z,96366.63
2022-08-31T22:31:53.844Z,96373.84
2022-08-31T22:34:21.660Z,96371.66
2022-08-31T22:36:52.198Z,96364.22
2022-08-31T22:39:22.380Z,96364.72
2022-08-31T22:41:49.667Z,96364.94
2022-08-31T22:44:19.900Z,96361.44
2022-08-31T22:46:47.791Z,96371.50
2022-08-31T22:49:15.381Z,96358.06
2022-08-31T22:51:47.794Z,96362.03
2022-08-31T22:54:17.643Z,96359.38
2022-08-31T22:56:45.560Z,96357.50
2022-08-31T22:59:15.551Z,96366.53
2022-08-31T23:01:47.764Z,96355.69
2022-08-31T23:04:20.401Z,96351.25
2022-08-31T23:06:50.530Z,96353.56
2022-08-31T23:09:22.206Z,96350.63
2022-08-31T23:11:53.523Z,96351.19
2022-08-31T23:14:21.382Z,96344.03
2022-08-31T23:16:55.380Z,96352.50
2022-08-31T23:19:26.589Z,96346.91
2022-08-31T23:21:57.642Z,96343.19
2022-08-31T23:24:38.608Z,96342.44
2022-08-31T23:27:09.520Z,96340.09
2022-08-31T23:29:40.627Z,96334.03
2022-08-31T23:32:13.619Z,96338.00
2022-08-31T23:34:41.950Z,96338.53
2022-08-31T23:37:10.983Z,96338.78
2022-08-31T23:39:41.040Z,96334.00
2022-08-31T23:42:12.460Z,96339.78
2022-08-31T23:44:43.696Z,96335.78
2022-08-31T23:47:17.387Z,96335.34
2022-08-31T23:49:46.162Z,96339.31
2022-08-31T23:52:18.856Z,96346.41
2022-08-31T23:54:49.902Z,96341.38
2022-08-31T23:57:32.246Z,96342.16
